sensor_id;sensor_type;location;lat;lon;timestamp;pressure;altitude;pressure_sealevel;temperature;humidity
13867;BME280;7003;46.982;15.248;2023-07-31T00:00:23;97115.78;;;15.73;100.00
13867;BME280;7003;46.982;15.248;2023-07-31T00:02:51;97120.44;;;15.76;100.00
13867;BME280;7003;46.982;15.248;2023-07-31T00:05:21;97123.66;;;15.85;100.00
13867;BME280;7003;46.982;15.248;2023-07-31T00:07:50;97115.06;;;15.99;100.00
13867;BME280;7003;46.982;15.248;2023-07-31T00:10:19;97116.06;;;15.91;100.00
13867;BME280;7003;46.982;15.248;2023-07-31T00:12:47;97119.53;;;15.91;100.00
13867;BME280;7003;46.982;15.248;2023-07-31T00:15:15;97118.28;;;15.85;100.00
13867;BME280;7003;46.982;15.248;2023-07-31T00:17:42;97115.00;;;15.72;100.00
13867;BME280;7003;46.982;15.248;2023-07-31T00:20:10;97115.63;;;15.62;100.00
13867;BME280;7003;46.982;15.248;2023-07-31T00:22:40;97116.34;;;15.59;100.00
13867;BME280;7003;46.982;15.248;2023-07-31T00:25:07;97118.00;;;15.67;100.00
13867;BME280;7003;46.982;15.248;2023-07-31T00:27:34;97117.53;;;15.62;100.00
13867;BME280;7003;46.982;15.248;2023-07-31T00:30:04;97123.91;;;15.54;100.00
13867;BME280;7003;46.982;15.248;2023-07-31T00:32:31;97126.78;;;15.45;100.00
13867;BME280;7003;46.982;15.248;2023-07-31T00:34:58;97127.63;;;15.49;100.00
13867;BME280;7003;46.982;15.248;2023-07-31T00:37:25;97120.66;;;15.64;100.00
13867;BME280;7003;46.982;15.248;2023-07-31T00:39:52;97125.34;;;15.51;100.00
13867;BME280;7003;46.982;15.248;2023-07-31T00:42:19;97123.75;;;15.47;100.00
13867;BME280;7003;46.982;15.248;2023-07-31T00:44:48;97114.22;;;15.49;100.00
13867;BME280;7003;46.982;15.248;2023-07-31T00:47:17;97114.47;;;15.40;100.00
13867;BME280;7003;46.982;15.248;2023-07-31T00:49:44;97118.97;;;15.36;100.00
13867;BME280;7003;46.982;15.248;2023-07-31T00:52:12;97111.38;;;15.38;100.00
13867;BME280;7003;46.982;15.248;2023-07-31T00:54:40;97119.44;;;15.42;100.00
13867;BME280;7003;46.982;15.248;2023-07-31T00:57:10;97108.66;;;15.16;100.00
13867;BME280;7003;46.982;15.248;2023-07-31T00:59:37;97105.47;;;15.10;100.00
13867;BME280;7003;46.982;15.248;2023-07-31T01:02:06;97114.88;;;15.00;100.00
13867;BME280;7003;46.982;15.248;2023-07-31T01:04:37;97112.19;;;15.00;100.00
13867;BME280;7003;46.982;15.248;2023-07-31T01:07:12;97109.66;;;15.08;100.00
13867;BME280;7003;46.982;15.248;2023-07-31T01:09:47;97113.47;;;15.07;100.00
13867;BME280;7003;46.982;15.248;2023-07-31T01:12:17;97119.78;;;15.18;100.00
13867;BME280;7003;46.982;15.248;2023-07-31T01:15:02;97106.31;;;15.14;100.00
13867;BME280;7003;46.982;15.248;2023-07-31T01:17:32;97111.34;;;15.16;100.00
13867;BME280;7003;46.982;15.248;2023-07-31T01:20:06;97110.84;;;15.10;100.00
13867;BME280;7003;46.982;15.248;2023-07-31T01:28:42;97119.66;;;15.11;100.00
13867;BME280;7003;46.982;15.248;2023-07-31T01:31:14;97117.56;;;15.00;100.00
13867;BME280;7003;46.982;15.248;2023-07-31T01:33:42;97118.19;;;14.94;100.00
13867;BME280;7003;46.982;15.248;2023-07-31T01:36:10;97125.31;;;14.86;100.00
13867;BME280;7003;46.982;15.248;2023-07-31T01:38:38;97125.25;;;14.83;100.00
13867;BME280;7003;46.982;15.248;2023-07-31T01:41:05;97117.28;;;14.86;100.00
13867;BME280;7003;46.982;15.248;2023-07-31T01:43:32;97114.81;;;14.97;100.00
13867;BME280;7003;46.982;15.248;2023-07-31T01:46:03;97117.06;;;14.76;100.00
13867;BME280;7003;46.982;15.248;2023-07-31T01:48:30;97120.53;;;14.76;100.00
13867;BME280;7003;46.982;15.248;2023-07-31T01:51:03;97116.13;;;14.87;100.00
13867;BME280;7003;46.982;15.248;2023-07-31T01:53:31;97118.63;;;14.77;100.00
13867;BME280;7003;46.982;15.248;2023-07-31T01:55:58;97122.06;;;14.77;100.00
13867;BME280;7003;46.982;15.248;2023-07-31T01:58:25;97117.91;;;14.99;100.00
13867;BME280;7003;46.982;15.248;2023-07-31T02:00:52;97116.50;;;14.86;100.00
13867;BME280;7003;46.982;15.248;2023-07-31T02:03:24;97116.97;;;14.72;100.00
13867;BME280;7003;46.982;15.248;2023-07-31T02:05:54;97118.81;;;14.68;100.00
13867;BME280;7003;46.982;15.248;2023-07-31T02:08:22;97123.94;;;14.57;100.00
13867;BME280;7003;46.982;15.248;2023-07-31T02:10:49;97125.69;;;14.50;100.00
13867;BME280;7003;46.982;15.248;2023-07-31T02:13:16;97132.75;;;14.58;100.00
13867;BME280;7003;46.982;15.248;2023-07-31T02:15:47;97127.25;;;14.51;100.00
13867;BME280;7003;46.982;15.248;2023-07-31T02:18:16;97137.53;;;14.49;100.00
13867;BME280;7003;46.982;15.248;2023-07-31T02:20:49;97123.66;;;14.43;100.00
13867;BME280;7003;46.982;15.248;2023-07-31T02:23:16;97127.25;;;14.51;100.00
13867;BME280;7003;46.982;15.248;2023-07-31T02:25:46;97133.72;;;14.50;100.00
13867;BME280;7003;46.982;15.248;2023-07-31T02:28:15;97124.66;;;14.54;100.00
13867;BME280;7003;46.982;15.248;2023-07-31T02:30:44;97128.97;;;14.59;100.00
13867;BME280;7003;46.982;15.248;2023-07-31T02:33:14;97133.19;;;14.60;100.00
13867;BME280;7003;46.982;15.248;2023-07-31T02:35:45;97128.72;;;14.48;100.00
13867;BME280;7003;46.982;15.248;2023-07-31T02:38:12;97126.84;;;14.33;100.00
13867;BME280;7003;46.982;15.248;2023-07-31T02:40:39;97134.81;;;14.30;100.00
13867;BME280;7003;46.982;15.248;2023-07-31T02:43:07;97131.06;;;14.34;100.00
13867;BME280;7003;46.982;15.248;2023-07-31T02:45:36;97126.44;;;14.31;100.00
13867;BME280;7003;46.982;15.248;2023-07-31T02:48:05;97129.78;;;14.44;100.00
13867;BME280;7003;46.982;15.248;2023-07-31T02:50:32;97127.03;;;14.40;100.00
13867;BME280;7003;46.982;15.248;2023-07-31T02:53:03;97124.72;;;14.39;100.00
13867;BME280;7003;46.982;15.248;2023-07-31T02:55:30;97127.91;;;14.29;100.00
13867;BME280;7003;46.982;15.248;2023-07-31T02:57:59;97127.47;;;14.26;100.00
13867;BME280;7003;46.982;15.248;2023-07-31T03:00:29;97124.78;;;14.26;100.00
13867;BME280;7003;46.982;15.248;2023-07-31T03:02:56;97132.28;;;14.37;100.00
13867;BME280;7003;46.982;15.248;2023-07-31T03:05:23;97131.97;;;14.38;100.00
13867;BME280;7003;46.982;15.248;2023-07-31T03:07:50;97135.91;;;14.29;100.00
13867;BME280;7003;46.982;15.248;2023-07-31T03:10:21;97126.72;;;14.10;100.00
13867;BME280;7003;46.982;15.248;2023-07-31T03:12:51;97129.38;;;14.10;100.00
13867;BME280;7003;46.982;15.248;2023-07-31T03:15:18;97128.63;;;13.94;100.00
13867;BME280;7003;46.982;15.248;2023-07-31T03:17:45;97144.88;;;13.85;100.00
13867;BME280;7003;46.982;15.248;2023-07-31T03:20:15;97137.44;;;13.95;100.00
13867;BME280;7003;46.982;15.248;2023-07-31T03:22:43;97146.41;;;13.86;100.00
13867;BME280;7003;46.982;15.248;2023-07-31T03:25:10;97151.56;;;13.95;100.00
13867;BME280;7003;46.982;15.248;2023-07-31T03:27:40;97157.97;;;14.06;100.00
13867;BME280;7003;46.982;15.248;2023-07-31T03:30:10;97155.34;;;14.10;100.00
13867;BME280;7003;46.982;15.248;2023-07-31T03:32:37;97161.47;;;14.10;100.00
13867;BME280;7003;46.982;15.248;2023-07-31T03:35:05;97158.91;;;14.14;100.00
13867;BME280;7003;46.982;15.248;2023-07-31T03:37:33;97158.41;;;14.08;100.00
13867;BME280;7003;46.982;15.248;2023-07-31T03:40:01;97166.84;;;14.10;100.00
13867;BME280;7003;46.982;15.248;2023-07-31T03:42:31;97165.28;;;14.09;100.00
13867;BME280;7003;46.982;15.248;2023-07-31T03:45:05;97164.09;;;13.91;100.00
13867;BME280;7003;46.982;15.248;2023-07-31T03:47:36;97175.13;;;13.90;100.00
13867;BME280;7003;46.982;15.248;2023-07-31T03:50:05;97164.00;;;13.87;100.00
13867;BME280;7003;46.982;15.248;2023-07-31T03:52:33;97158.66;;;13.87;100.00
13867;BME280;7003;46.982;15.248;2023-07-31T03:55:02;97165.31;;;13.78;100.00
13867;BME280;7003;46.982;15.248;2023-07-31T03:57:31;97173.06;;;13.83;100.00
13867;BME280;7003;46.982;15.248;2023-07-31T04:00:00;97169.78;;;13.74;100.00
13867;BME280;7003;46.982;15.248;2023-07-31T04:02:29;97168.22;;;13.73;100.00
13867;BME280;7003;46.982;15.248;2023-07-31T04:04:57;97168.00;;;13.78;100.00
13867;BME280;7003;46.982;15.248;2023-07-31T04:07:27;97166.25;;;13.85;100.00
13867;BME280;7003;46.982;15.248;2023-07-31T04:09:57;97160.31;;;13.92;100.00
13867;BME280;7003;46.982;15.248;2023-07-31T04:12:28;97161.75;;;13.90;100.00
13867;BME280;7003;46.982;15.248;2023-07-31T04:14:59;97161.88;;;13.93;100.00
13867;BME280;7003;46.982;15.248;2023-07-31T04:17:31;97164.09;;;13.91;100.00
13867;BME280;7003;46.982;15.248;2023-07-31T04:19:59;97164.00;;;14.03;100.00
13867;BME280;7003;46.982;15.248;2023-07-31T04:22:27;97161.50;;;13.95;100.00
13867;BME280;7003;46.982;15.248;2023-07-31T04:24:58;97166.66;;;13.87;100.00
13867;BME280;7003;46.982;15.248;2023-07-31T04:27:26;97170.41;;;13.83;100.00
13867;BME280;7003;46.982;15.248;2023-07-31T04:29:58;97169.34;;;13.87;100.00
13867;BME280;7003;46.982;15.248;2023-07-31T04:32:30;97170.66;;;13.94;100.00
13867;BME280;7003;46.982;15.248;2023-07-31T04:35:04;97169.78;;;13.90;100.00
13867;BME280;7003;46.982;15.248;2023-07-31T04:37:33;97173.34;;;13.94;100.00
13867;BME280;7003;46.982;15.248;2023-07-31T04:40:05;97169.69;;;14.02;100.00
13867;BME280;7003;46.982;15.248;2023-07-31T04:42:36;97175.22;;;14.09;100.00
13867;BME280;7003;46.982;15.248;2023-07-31T04:45:08;97172.13;;;14.07;100.00
13867;BME280;7003;46.982;15.248;2023-07-31T04:47:38;97177.97;;;14.12;100.00
13867;BME280;7003;46.982;15.248;2023-07-31T04:50:09;97177.69;;;14.17;100.00
13867;BME280;7003;46.982;15.248;2023-07-31T04:52:38;97179.09;;;14.11;100.00
13867;BME280;7003;46.982;15.248;2023-07-31T04:55:07;97174.69;;;14.19;100.00
13867;BME280;7003;46.982;15.248;2023-07-31T04:57:37;97169.66;;;14.17;100.00
13867;BME280;7003;46.982;15.248;2023-07-31T05:00:07;97177.44;;;14.22;100.00
13867;BME280;7003;46.982;15.248;2023-07-31T05:02:41;97160.50;;;14.34;100.00
13867;BME280;7003;46.982;15.248;2023-07-31T05:05:12;97161.56;;;14.30;100.00
13867;BME280;7003;46.982;15.248;2023-07-31T05:07:45;97159.50;;;14.39;100.00
13867;BME280;7003;46.982;15.248;2023-07-31T05:10:19;97158.34;;;14.55;100.00
13867;BME280;7003;46.982;15.248;2023-07-31T05:12:50;97153.78;;;14.75;100.00
13867;BME280;7003;46.982;15.248;2023-07-31T05:15:24;97149.84;;;15.08;100.00
13867;BME280;7003;46.982;15.248;2023-07-31T05:17:57;97163.78;;;15.55;100.00
13867;BME280;7003;46.982;15.248;2023-07-31T05:20:26;97165.78;;;16.07;100.00
13867;BME280;7003;46.982;15.248;2023-07-31T05:22:54;97168.00;;;16.54;100.00
13867;BME280;7003;46.982;15.248;2023-07-31T05:25:25;97175.06;;;16.92;100.00
13867;BME280;7003;46.982;15.248;2023-07-31T05:27:53;97190.16;;;17.34;100.00
13867;BME280;7003;46.982;15.248;2023-07-31T05:30:21;97182.41;;;17.62;100.00
13867;BME280;7003;46.982;15.248;2023-07-31T05:32:49;97192.66;;;17.90;100.00
13867;BME280;7003;46.982;15.248;2023-07-31T05:35:19;97190.63;;;18.28;100.00
13867;BME280;7003;46.982;15.248;2023-07-31T05:37:48;97187.63;;;18.33;100.00
13867;BME280;7003;46.982;15.248;2023-07-31T05:40:19;97195.00;;;18.46;100.00
13867;BME280;7003;46.982;15.248;2023-07-31T05:42:50;97194.44;;;18.74;100.00
13867;BME280;7003;46.982;15.248;2023-07-31T05:45:21;97198.44;;;19.02;100.00
13867;BME280;7003;46.982;15.248;2023-07-31T05:47:58;97192.03;;;19.45;100.00
13867;BME280;7003;46.982;15.248;2023-07-31T05:50:36;97195.19;;;19.62;100.00
13867;BME280;7003;46.982;15.248;2023-07-31T05:53:06;97192.03;;;19.45;100.00
13867;BME280;7003;46.982;15.248;2023-07-31T05:55:34;97195.56;;;19.49;100.00
13867;BME280;7003;46.982;15.248;2023-07-31T05:58:02;97200.50;;;19.40;100.00
13867;BME280;7003;46.982;15.248;2023-07-31T06:00:31;97210.50;;;19.33;100.00
13867;BME280;7003;46.982;15.248;2023-07-31T06:03:00;97213.28;;;19.50;100.00
13867;BME280;7003;46.982;15.248;2023-07-31T06:05:29;97202.16;;;19.91;100.00
13867;BME280;7003;46.982;15.248;2023-07-31T06:08:01;97206.44;;;20.03;100.00
13867;BME280;7003;46.982;15.248;2023-07-31T06:10:30;97207.19;;;19.82;100.00
13867;BME280;7003;46.982;15.248;2023-07-31T06:12:59;97207.50;;;19.55;100.00
13867;BME280;7003;46.982;15.248;2023-07-31T06:15:30;97201.38;;;19.58;100.00
13867;BME280;7003;46.982;15.248;2023-07-31T06:18:00;97201.03;;;19.99;100.00
13867;BME280;7003;46.982;15.248;2023-07-31T06:20:29;97198.72;;;20.29;100.00
13867;BME280;7003;46.982;15.248;2023-07-31T06:23:02;97191.78;;;20.21;100.00
13867;BME280;7003;46.982;15.248;2023-07-31T06:25:30;97191.81;;;20.35;100.00
13867;BME280;7003;46.982;15.248;2023-07-31T06:27:59;97189.03;;;20.78;100.00
13867;BME280;7003;46.982;15.248;2023-07-31T06:30:29;97190.44;;;21.14;100.00
13867;BME280;7003;46.982;15.248;2023-07-31T06:32:57;97189.25;;;21.30;100.00
13867;BME280;7003;46.982;15.248;2023-07-31T06:35:25;97183.50;;;21.10;100.00
13867;BME280;7003;46.982;15.248;2023-07-31T06:37:55;97187.75;;;21.11;100.00
13867;BME280;7003;46.982;15.248;2023-07-31T06:40:24;97184.66;;;21.20;100.00
13867;BME280;7003;46.982;15.248;2023-07-31T06:42:54;97197.81;;;21.07;100.00
13867;BME280;7003;46.982;15.248;2023-07-31T06:45:29;97189.72;;;21.00;100.00
13867;BME280;7003;46.982;15.248;2023-07-31T06:47:56;97190.94;;;20.85;100.00
13867;BME280;7003;46.982;15.248;2023-07-31T06:50:30;97187.50;;;20.73;100.00
13867;BME280;7003;46.982;15.248;2023-07-31T06:53:00;97181.34;;;20.66;100.00
13867;BME280;7003;46.982;15.248;2023-07-31T06:55:32;97185.59;;;20.60;100.00
13867;BME280;7003;46.982;15.248;2023-07-31T06:58:00;97187.94;;;20.51;100.00
13867;BME280;7003;46.982;15.248;2023-07-31T07:00:28;97185.19;;;20.61;100.00
13867;BME280;7003;46.982;15.248;2023-07-31T07:02:55;97181.28;;;20.84;100.00
13867;BME280;7003;46.982;15.248;2023-07-31T07:05:22;97171.88;;;21.24;100.00
13867;BME280;7003;46.982;15.248;2023-07-31T07:07:52;97176.69;;;21.68;100.00
13867;BME280;7003;46.982;15.248;2023-07-31T07:10:22;97185.06;;;21.87;100.00
13867;BME280;7003;46.982;15.248;2023-07-31T07:12:54;97179.56;;;22.02;100.00
13867;BME280;7003;46.982;15.248;2023-07-31T07:15:24;97178.06;;;22.38;100.00
13867;BME280;7003;46.982;15.248;2023-07-31T07:17:51;97181.50;;;22.46;100.00
13867;BME280;7003;46.982;15.248;2023-07-31T07:20:19;97180.06;;;22.34;100.00
13867;BME280;7003;46.982;15.248;2023-07-31T07:22:47;97182.25;;;22.46;100.00
13867;BME280;7003;46.982;15.248;2023-07-31T07:25:14;97183.56;;;22.35;100.00
13867;BME280;7003;46.982;15.248;2023-07-31T07:27:44;97183.94;;;22.37;100.00
13867;BME280;7003;46.982;15.248;2023-07-31T07:30:16;97180.22;;;22.16;100.00
13867;BME280;7003;46.982;15.248;2023-07-31T07:32:46;97176.31;;;22.21;100.00
13867;BME280;7003;46.982;15.248;2023-07-31T07:35:16;97177.97;;;22.52;100.00
13867;BME280;7003;46.982;15.248;2023-07-31T07:37:44;97179.47;;;22.53;100.00
13867;BME280;7003;46.982;15.248;2023-07-31T07:40:14;97184.97;;;22.46;100.00
13867;BME280;7003;46.982;15.248;2023-07-31T07:42:41;97181.31;;;22.67;100.00
13867;BME280;7003;46.982;15.248;2023-07-31T07:45:11;97178.97;;;23.07;100.00
13867;BME280;7003;46.982;15.248;2023-07-31T07:47:40;97172.91;;;23.26;100.00
13867;BME280;7003;46.982;15.248;2023-07-31T07:50:10;97172.78;;;23.36;100.00
13867;BME280;7003;46.982;15.248;2023-07-31T07:52:41;97170.38;;;23.42;100.00
13867;BME280;7003;46.982;15.248;2023-07-31T07:55:08;97173.06;;;23.42;100.00
13867;BME280;7003;46.982;15.248;2023-07-31T07:57:38;97161.19;;;23.32;100.00
13867;BME280;7003;46.982;15.248;2023-07-31T08:00:07;97170.53;;;22.97;100.00
13867;BME280;7003;46.982;15.248;2023-07-31T08:02:37;97170.00;;;22.76;100.00
13867;BME280;7003;46.982;15.248;2023-07-31T08:05:09;97166.53;;;22.75;100.00
13867;BME280;7003;46.982;15.248;2023-07-31T08:07:36;97165.88;;;22.98;100.00
13867;BME280;7003;46.982;15.248;2023-07-31T08:10:05;97164.34;;;23.27;100.00
13867;BME280;7003;46.982;15.248;2023-07-31T08:12:32;97161.72;;;23.20;100.00
13867;BME280;7003;46.982;15.248;2023-07-31T08:15:00;97162.34;;;23.31;100.00
13867;BME280;7003;46.982;15.248;2023-07-31T08:17:30;97150.69;;;23.65;100.00
13867;BME280;7003;46.982;15.248;2023-07-31T08:19:59;97151.97;;;23.57;100.00
13867;BME280;7003;46.982;15.248;2023-07-31T08:22:31;97146.41;;;23.64;100.00
13867;BME280;7003;46.982;15.248;2023-07-31T08:24:58;97143.28;;;23.92;100.00
13867;BME280;7003;46.982;15.248;2023-07-31T08:27:28;97145.41;;;24.04;100.00
13867;BME280;7003;46.982;15.248;2023-07-31T08:29:58;97144.25;;;24.29;100.00
13867;BME280;7003;46.982;15.248;2023-07-31T08:32:28;97147.09;;;23.95;100.00
13867;BME280;7003;46.982;15.248;2023-07-31T08:34:55;97141.28;;;24.20;100.00
13867;BME280;7003;46.982;15.248;2023-07-31T08:37:22;97143.41;;;24.32;100.00
13867;BME280;7003;46.982;15.248;2023-07-31T08:39:58;97150.50;;;24.26;100.00
13867;BME280;7003;46.982;15.248;2023-07-31T08:42:28;97154.28;;;23.28;100.00
13867;BME280;7003;46.982;15.248;2023-07-31T08:44:56;97151.31;;;23.15;100.00
13867;BME280;7003;46.982;15.248;2023-07-31T08:47:28;97148.94;;;22.87;100.00
13867;BME280;7003;46.982;15.248;2023-07-31T08:49:56;97152.72;;;23.27;100.00
13867;BME280;7003;46.982;15.248;2023-07-31T08:52:26;97146.22;;;23.21;100.00
13867;BME280;7003;46.982;15.248;2023-07-31T08:54:54;97147.59;;;23.32;100.00
13867;BME280;7003;46.982;15.248;2023-07-31T08:57:25;97145.25;;;23.65;100.00
13867;BME280;7003;46.982;15.248;2023-07-31T08:59:57;97144.91;;;23.32;100.00
13867;BME280;7003;46.982;15.248;2023-07-31T09:02:31;97141.09;;;23.57;100.00
13867;BME280;7003;46.982;15.248;2023-07-31T09:05:06;97140.47;;;23.72;100.00
13867;BME280;7003;46.982;15.248;2023-07-31T09:07:36;97148.91;;;23.78;100.00
13867;BME280;7003;46.982;15.248;2023-07-31T09:10:07;97145.81;;;23.53;100.00
13867;BME280;7003;46.982;15.248;2023-07-31T09:12:39;97137.81;;;23.38;100.00
13867;BME280;7003;46.982;15.248;2023-07-31T09:15:08;97145.88;;;23.15;100.00
13867;BME280;7003;46.982;15.248;2023-07-31T09:17:38;97140.78;;;22.90;100.00
13867;BME280;7003;46.982;15.248;2023-07-31T09:20:16;97139.19;;;22.93;100.00
13867;BME280;7003;46.982;15.248;2023-07-31T09:22:47;97143.53;;;23.17;100.00
13867;BME280;7003;46.982;15.248;2023-07-31T09:25:19;97136.03;;;23.28;100.00
13867;BME280;7003;46.982;15.248;2023-07-31T09:27:53;97135.19;;;23.05;100.00
13867;BME280;7003;46.982;15.248;2023-07-31T09:30:23;97129.00;;;23.04;100.00
13867;BME280;7003;46.982;15.248;2023-07-31T09:32:51;97132.78;;;23.10;100.00
13867;BME280;7003;46.982;15.248;2023-07-31T09:35:31;97138.38;;;22.96;100.00
13867;BME280;7003;46.982;15.248;2023-07-31T09:38:01;97127.66;;;23.16;100.00
13867;BME280;7003;46.982;15.248;2023-07-31T09:40:31;97123.84;;;23.94;100.00
13867;BME280;7003;46.982;15.248;2023-07-31T09:43:03;97117.84;;;24.29;100.00
13867;BME280;7003;46.982;15.248;2023-07-31T09:45:34;97108.34;;;24.61;100.00
13867;BME280;7003;46.982;15.248;2023-07-31T09:48:03;97108.31;;;24.80;100.00
13867;BME280;7003;46.982;15.248;2023-07-31T09:50:37;97101.06;;;24.93;100.00
13867;BME280;7003;46.982;15.248;2023-07-31T09:53:05;97099.19;;;25.10;100.00
13867;BME280;7003;46.982;15.248;2023-07-31T09:55:33;97091.56;;;25.21;100.00
13867;BME280;7003;46.982;15.248;2023-07-31T09:58:06;97090.06;;;25.37;100.00
13867;BME280;7003;46.982;15.248;2023-07-31T10:00:35;97088.84;;;25.21;100.00
13867;BME280;7003;46.982;15.248;2023-07-31T10:03:06;97089.91;;;25.08;100.00
13867;BME280;7003;46.982;15.248;2023-07-31T10:05:39;97084.38;;;25.47;100.00
13867;BME280;7003;46.982;15.248;2023-07-31T10:08:09;97086.44;;;25.92;100.00
13867;BME280;7003;46.982;15.248;2023-07-31T10:10:37;97086.28;;;25.83;100.00
13867;BME280;7003;46.982;15.248;2023-07-31T10:13:09;97068.72;;;25.51;100.00
13867;BME280;7003;46.982;15.248;2023-07-31T10:15:37;97070.75;;;25.47;100.00
13867;BME280;7003;46.982;15.248;2023-07-31T10:18:07;97075.69;;;25.36;100.00
13867;BME280;7003;46.982;15.248;2023-07-31T10:20:35;97068.59;;;25.22;100.00
13867;BME280;7003;46.982;15.248;2023-07-31T10:23:06;97062.72;;;25.40;100.00
13867;BME280;7003;46.982;15.248;2023-07-31T10:25:34;97058.81;;;25.41;100.00
13867;BME280;7003;46.982;15.248;2023-07-31T10:28:04;97058.41;;;24.90;100.00
13867;BME280;7003;46.982;15.248;2023-07-31T10:30:37;97059.41;;;25.16;99.03
13867;BME280;7003;46.982;15.248;2023-07-31T10:33:06;97051.22;;;25.68;100.00
13867;BME280;7003;46.982;15.248;2023-07-31T10:35:36;97050.25;;;25.91;100.00
13867;BME280;7003;46.982;15.248;2023-07-31T10:38:10;97048.91;;;26.28;100.00
13867;BME280;7003;46.982;15.248;2023-07-31T10:40:41;97057.38;;;25.37;97.15
13867;BME280;7003;46.982;15.248;2023-07-31T10:43:23;97052.63;;;25.57;100.00
13867;BME280;7003;46.982;15.248;2023-07-31T10:45:56;97057.25;;;25.60;100.00
13867;BME280;7003;46.982;15.248;2023-07-31T10:48:24;97050.44;;;25.84;100.00
13867;BME280;7003;46.982;15.248;2023-07-31T10:50:54;97052.78;;;25.98;100.00
13867;BME280;7003;46.982;15.248;2023-07-31T10:53:24;97054.59;;;25.89;100.00
13867;BME280;7003;46.982;15.248;2023-07-31T10:55:57;97047.25;;;26.02;100.00
13867;BME280;7003;46.982;15.248;2023-07-31T10:58:25;97040.81;;;26.25;100.00
13867;BME280;7003;46.982;15.248;2023-07-31T11:00:58;97037.75;;;26.52;100.00
13867;BME280;7003;46.982;15.248;2023-07-31T11:03:26;97035.59;;;26.59;95.25
13867;BME280;7003;46.982;15.248;2023-07-31T11:06:00;97035.53;;;26.75;96.46
13867;BME280;7003;46.982;15.248;2023-07-31T11:08:30;97026.03;;;26.80;90.20
13867;BME280;7003;46.982;15.248;2023-07-31T11:11:06;97023.97;;;26.84;100.00
13867;BME280;7003;46.982;15.248;2023-07-31T11:13:40;97022.88;;;26.11;92.14
13867;BME280;7003;46.982;15.248;2023-07-31T11:16:12;97017.41;;;26.11;100.00
13867;BME280;7003;46.982;15.248;2023-07-31T11:18:40;97011.81;;;26.72;100.00
13867;BME280;7003;46.982;15.248;2023-07-31T11:21:12;97009.81;;;27.14;100.00
13867;BME280;7003;46.982;15.248;2023-07-31T11:23:40;97014.59;;;26.85;97.55
13867;BME280;7003;46.982;15.248;2023-07-31T11:26:10;97017.91;;;27.05;96.99
13867;BME280;7003;46.982;15.248;2023-07-31T11:28:39;97022.91;;;27.19;93.73
13867;BME280;7003;46.982;15.248;2023-07-31T11:31:10;97022.50;;;27.08;97.07
13867;BME280;7003;46.982;15.248;2023-07-31T11:33:38;97018.13;;;26.98;92.93
13867;BME280;7003;46.982;15.248;2023-07-31T11:36:05;97014.47;;;26.76;93.95
13867;BME280;7003;46.982;15.248;2023-07-31T11:38:33;97003.28;;;26.58;98.00
13867;BME280;7003;46.982;15.248;2023-07-31T11:41:02;97002.09;;;26.71;100.00
13867;BME280;7003;46.982;15.248;2023-07-31T11:43:32;96993.91;;;26.46;100.00
13867;BME280;7003;46.982;15.248;2023-07-31T11:46:00;96988.03;;;26.48;98.28
13867;BME280;7003;46.982;15.248;2023-07-31T11:48:31;96984.22;;;26.83;100.00
13867;BME280;7003;46.982;15.248;2023-07-31T11:51:04;96985.31;;;27.36;100.00
13867;BME280;7003;46.982;15.248;2023-07-31T11:53:36;96979.66;;;27.56;100.00
13867;BME280;7003;46.982;15.248;2023-07-31T11:56:06;96981.09;;;27.23;91.85
13867;BME280;7003;46.982;15.248;2023-07-31T11:58:37;96978.91;;;26.92;98.00
13867;BME280;7003;46.982;15.248;2023-07-31T12:01:08;96977.34;;;26.66;97.40
13867;BME280;7003;46.982;15.248;2023-07-31T12:03:39;96974.81;;;25.88;99.19
13867;BME280;7003;46.982;15.248;2023-07-31T12:06:10;96971.09;;;25.66;100.00
13867;BME280;7003;46.982;15.248;2023-07-31T12:08:38;96971.31;;;25.88;100.00
13867;BME280;7003;46.982;15.248;2023-07-31T12:11:09;96967.06;;;25.87;100.00
13867;BME280;7003;46.982;15.248;2023-07-31T12:13:39;96953.19;;;26.10;99.54
13867;BME280;7003;46.982;15.248;2023-07-31T12:16:07;96954.75;;;26.53;100.00
13867;BME280;7003;46.982;15.248;2023-07-31T12:18:36;96953.88;;;26.56;100.00
13867;BME280;7003;46.982;15.248;2023-07-31T12:21:07;96949.72;;;26.64;100.00
13867;BME280;7003;46.982;15.248;2023-07-31T12:23:37;96947.72;;;26.93;95.53
13867;BME280;7003;46.982;15.248;2023-07-31T12:26:09;96937.75;;;26.99;83.15
13867;BME280;7003;46.982;15.248;2023-07-31T12:28:41;96930.56;;;26.93;94.10
13867;BME280;7003;46.982;15.248;2023-07-31T12:31:12;96931.53;;;26.99;91.07
13867;BME280;7003;46.982;15.248;2023-07-31T12:33:42;96932.72;;;27.10;95.44
13867;BME280;7003;46.982;15.248;2023-07-31T12:36:15;96931.63;;;26.95;98.03
13867;BME280;7003;46.982;15.248;2023-07-31T12:38:43;96930.97;;;26.66;81.91
13867;BME280;7003;46.982;15.248;2023-07-31T12:41:14;96917.22;;;26.69;84.58
13867;BME280;7003;46.982;15.248;2023-07-31T12:43:44;96920.56;;;26.48;100.00
13867;BME280;7003;46.982;15.248;2023-07-31T12:46:14;96919.59;;;26.42;95.18
13867;BME280;7003;46.982;15.248;2023-07-31T12:48:45;96905.97;;;26.67;89.93
13867;BME280;7003;46.982;15.248;2023-07-31T12:51:16;96904.53;;;27.13;100.00
13867;BME280;7003;46.982;15.248;2023-07-31T12:53:46;96889.19;;;27.54;87.62
13867;BME280;7003;46.982;15.248;2023-07-31T12:56:14;96889.03;;;27.57;87.82
13867;BME280;7003;46.982;15.248;2023-07-31T12:58:44;96893.09;;;27.87;75.86
13867;BME280;7003;46.982;15.248;2023-07-31T13:01:14;96885.50;;;27.91;79.17
13867;BME280;7003;46.982;15.248;2023-07-31T13:03:41;96887.63;;;27.87;84.22
13867;BME280;7003;46.982;15.248;2023-07-31T13:06:09;96883.16;;;28.03;93.83
13867;BME280;7003;46.982;15.248;2023-07-31T13:08:38;96875.00;;;28.12;90.34